METAR Data
IDs: Format: Raw Decoded Include TAF

Data at: 1339 UTC 21 Apr 2021

METAR for:KMPZ (Mount Pleasant Muni, IA, US)
Text:KMPZ 211335Z AUTO 00000KT 10SM CLR 03/M05 A3019 RMK AO2
Temperature: 3.0°C ( 37°F)
Dewpoint: -5.0°C ( 23°F) [RH = 56%]
Pressure (altimeter):30.19 inches Hg (1022.4 mb)
Winds:calm
Visibility:10 or more sm (16+ km)
Ceiling:at least 12,000 feet AGL
Clouds:sky clear below 12,000 feet AGL
QC Flag:automated observation with no human augmentation